Kapaa, HI

2:02 AM HST on May 26, 2015 (GMT -1000)
WAILUA HOMESTEADS | | Change Station
CLOSE
Current Station
Personal Weather Station
Location: Kapaa, HI
Elevation: 361 ft
Nearby Weather Stations

Elev 361 ft 22.07 °N, 159.36 °W | Updated 27 seconds ago

Scattered Clouds
Scattered Clouds
65.4 °F
Feels Like 65.4 °F
N
0.0
Wind Variable Wind from NNW
Gusts 9.0 mph

Today
High -- | Low -- °F
--% Chance of Precip.
Yesterday
High -- | Low -- °F
Precip. -- in
5:54 AM 7:14 PM
First Quarter, 57% visible
Pressure 29.95 in
Visibility 10.0 miles
Clouds Scattered Clouds 2500 ft
Dew Point 60 °F
Humidity 83%
Rainfall 0.00 in
Snow Depth Not available.
UV 0.0 out of 12
Pollen Not available.
Air Quality Not available.
Flu Activity Local Activity
METAR PHLI 261153Z 00000KT 10SM SCT025 19/14 A2996 RMK AO2 SLP142 T01920144 10217 20194 58015 $

More Conditions Fewer Conditions

Pressure 29.95 in
Visibility 10.0 miles
Clouds Scattered Clouds 2500 ft
Dew Point 60 °F
Humidity 83%
Rainfall 0.00 in
Snow Depth Not available.
UV 0.0 out of 12
Pollen Not available.
Air Quality Not available.
Flu Activity Local Activity
METAR PHLI 261153Z 00000KT 10SM SCT025 19/14 A2996 RMK AO2 SLP142 T01920144 10217 20194 58015 $

More Conditions Fewer Conditions

10-Day Weather Forecast

Almanac

Astronomy

May. 26, 2015 Rise Set
Actual Time
Civil Twilight
Nautical Twilight
Astronomical Twilight
Moon
Length of Visible Light
Length of Day
Tomorrow will be .
, % of the Moon is Illuminated

Today's Extremes

State Highs State Lows

Community

WunderPhotos

Upload Photos

1,824,318 photos uploaded!

WunderBlogs® & News

Nearby

Air Quality

  Air Quality AQ Index Pollutant
Not available.

Snow Depth

Station Depth Elevation

Earthquake Activity

City Distance Mag. Time & Date
Minimum magnitude displayed is 2.5.

Coastal Water Temperatures

Place Temperature

Stations

Nearby Weather Stations

Station Location Temp. Windchill Dew Point Humidity Wind Precip. Elev Updated Type